Volcan De Tamasite — ECFE — position and weather

sailwx.info

Track history (hours):
 
Tides and Currents Weather Stations Pressure Air Temp Water Temp Dewpoint Dewpoint Depression Visibility Wind Speed Wind Dir Waves Ship Positions

Volcan De Tamasite

Last reported at 2015-Apr-16 09:33 UTC. Time now 2015-May-05 14:16 UTC.
Position N 28°10' W 015°24'.
Warning: this ship's position is 19 days out of date.

Length 141 m; draft 5.4 m.

Type: Passenger vessel. MMSI: 224093000.

Date/timePositionNaut miles runAvg speedWind from/ knotsBaromVisibWave heightAir tempDewpointWater temp
2015-Apr-16 09:33N 28°10' W 015°24'1010.4
2015-Apr-16 08:33N 28°15' W 015°34'2019.7
2015-Apr-16 07:33N 28°22' W 015°55'1917.3
2015-Apr-16 06:29N 28°28' W 016°15'0 0.0
2015-Apr-16 05:33N 28°28' W 016°15'0 0.0
2015-Apr-16 04:26N 28°28' W 016°15'0 0.0
2015-Apr-16 02:11N 28°28' W 016°15'0 0.0
2015-Apr-16 00:33N 28°28' W 016°15'0 0.0
2015-Apr-15 23:31N 28°28' W 016°15'0 0.0
2015-Apr-15 22:33N 28°28' W 016°15'2311.2
2015-Apr-15 20:32N 28°21' W 015°50'2020.2
2015-Apr-15 19:33N 28°14' W 015°30'7 6.5
2015-Apr-15 18:33N 28°10' W 015°24'5 4.9
2015-Apr-15 17:33N 28°08' W 015°19'2020.1
2015-Apr-15 16:33N 28°05' W 014°56'2020.2
2015-Apr-15 15:33N 28°02' W 014°34'10 3.4
2015-Apr-15 12:33N 28°03' W 014°22'0 0.0
2015-Apr-15 11:33N 28°03' W 014°22'0 0.0
2015-Apr-15 10:33N 28°03' W 014°22'8 8.2
2015-Apr-15 09:32N 28°02' W 014°31'1919.7
2015-Apr-15 08:33N 28°04' W 014°53'2019.7
2015-Apr-15 07:33N 28°06' W 015°15'9 8.9
2015-Apr-15 06:33N 28°08' W 015°25'0 0.0
2015-Apr-15 05:33N 28°08' W 015°25'0 0.0
2015-Apr-15 04:33N 28°08' W 015°25'0 0.0
2015-Apr-15 03:33N 28°08' W 015°25'0 0.0
2015-Apr-15 02:33N 28°08' W 015°25'0 0.0
2015-Apr-15 01:33N 28°08' W 015°25'0 0.0
2015-Apr-15 00:33N 28°08' W 015°25'0 0.0
2015-Apr-14 23:33N 28°08' W 015°25'0 0.0
2015-Apr-14 22:33N 28°08' W 015°25'0 0.0
2015-Apr-14 21:33N 28°08' W 015°25'0 0.0
2015-Apr-14 20:34N 28°08' W 015°25'0 0.0
2015-Apr-14 19:33N 28°08' W 015°25'0 0.0
2015-Apr-14 18:34N 28°08' W 015°25'7 7.3
2015-Apr-14 17:33N 28°06' W 015°17'1919.3
2015-Apr-14 16:33N 28°04' W 014°55'1919.5
2015-Apr-14 15:33N 28°02' W 014°33'1010.0
2015-Apr-14 14:33N 28°03' W 014°22'0 0.0
2015-Apr-14 13:32N 28°03' W 014°22'0 0.0
2015-Apr-14 12:33N 28°03' W 014°22'0 0.0
2015-Apr-14 11:33N 28°03' W 014°22'0 0.0
2015-Apr-14 10:32N 28°03' W 014°22'8 8.3
2015-Apr-14 09:32N 28°02' W 014°31'2020.1
2015-Apr-14 08:34N 28°04' W 014°53'2020.1
2015-Apr-14 07:33N 28°07' W 015°16'8 8.0
2015-Apr-14 06:33N 28°08' W 015°25'0 0.0
2015-Apr-14 05:33N 28°08' W 015°25'0 0.0
2015-Apr-14 04:33N 28°08' W 015°25'0 0.0
2015-Apr-14 03:33N 28°08' W 015°25'0 0.0
2015-Apr-14 02:33N 28°08' W 015°25'0 0.0
2015-Apr-14 01:33N 28°08' W 015°25'0 0.0
2015-Apr-14 00:33N 28°08' W 015°25'0 0.0
2015-Apr-13 23:33N 28°08' W 015°25'0 0.0
2015-Apr-13 22:33N 28°08' W 015°25'0 0.0
2015-Apr-13 21:33N 28°08' W 015°25'0 0.0
2015-Apr-13 20:33N 28°08' W 015°25'0 0.0
2015-Apr-13 19:33N 28°08' W 015°25'0 0.0
2015-Apr-13 18:33N 28°08' W 015°25'7 7.5
2015-Apr-13 17:34N 28°06' W 015°17'2020.0
2015-Apr-13 16:34N 28°04' W 014°54'2020.2
2015-Apr-13 15:34N 28°02' W 014°31'8 8.5
2015-Apr-13 14:33N 28°03' W 014°22'0 0.0
2015-Apr-13 13:33N 28°03' W 014°22'0 0.0
2015-Apr-13 12:33N 28°03' W 014°22'0 0.0
2015-Apr-13 11:33N 28°03' W 014°22'0 0.0
2015-Apr-13 10:32N 28°03' W 014°22'1110.4
2015-Apr-13 09:30N 28°02' W 014°34'1920.0
2015-Apr-13 08:34N 28°04' W 014°55'2020.4
2015-Apr-13 07:33N 28°07' W 015°18'6 6.3
2015-Apr-13 06:34N 28°08' W 015°25'0 0.0
2015-Apr-13 05:34N 28°08' W 015°25'0 0.0
2015-Apr-13 04:33N 28°08' W 015°25'0 0.0
2015-Apr-13 03:33N 28°08' W 015°25'0 0.0
2015-Apr-13 02:33N 28°08' W 015°25'0 0.0
2015-Apr-13 01:33N 28°08' W 015°25'0 0.0
2015-Apr-13 00:33N 28°08' W 015°25'0 0.0
2015-Apr-12 23:33N 28°08' W 015°25'0 0.0
2015-Apr-12 22:33N 28°08' W 015°25'0 0.0
2015-Apr-12 21:33N 28°08' W 015°25'0 0.1
2015-Apr-12 20:34N 28°08' W 015°25'1615.8
2015-Apr-12 19:33N 28°06' W 015°07'2019.9
2015-Apr-12 18:33N 28°03' W 014°45'2019.8
2015-Apr-12 17:33N 28°03' W 014°22'1 0.5
2015-Apr-12 16:33N 28°03' W 014°22'9 8.8
2015-Apr-12 15:33N 28°02' W 014°32'2019.9
2015-Apr-12 14:33N 28°04' W 014°54'2020.3
2015-Apr-12 13:34N 28°07' W 015°17'7 7.3
2015-Apr-12 12:33N 28°08' W 015°25'0 0.0
2015-Apr-12 11:33N 28°08' W 015°25'0 0.0
2015-Apr-12 10:33N 28°08' W 015°25'3 2.6
2015-Apr-12 09:33N 28°11' W 015°23'2019.9
2015-Apr-12 08:33N 28°18' W 015°44'2019.8
2015-Apr-12 07:33N 28°26' W 016°05'9 3.6
2015-Apr-12 05:09N 28°28' W 016°15'0 0.0
2015-Apr-11 23:10N 28°28' W 016°15'24 9.0
2015-Apr-11 20:33N 28°21' W 015°49'2020.0
2015-Apr-11 19:33N 28°14' W 015°28'6 5.6
2015-Apr-11 18:33N 28°10' W 015°24'5 4.7
2015-Apr-11 17:33N 28°08' W 015°19'2019.8
2015-Apr-11 16:33N 28°05' W 014°57'2020.0
2015-Apr-11 15:33N 28°02' W 014°34'1110.9
2015-Apr-11 14:33N 28°03' W 014°22'0 0.0
2015-Apr-11 13:30N 28°03' W 014°22'0 0.0
2015-Apr-11 12:32N 28°03' W 014°22'1616.2
2015-Apr-11 11:33N 28°03' W 014°40'2019.6
2015-Apr-11 10:33N 28°06' W 015°02'2019.7
2015-Apr-11 09:33N 28°09' W 015°24'2 1.9
2015-Apr-11 08:34N 28°11' W 015°24'2019.6
2015-Apr-11 07:34N 28°18' W 015°44'2019.7
2015-Apr-11 06:33N 28°26' W 016°05'18 1.7
2015-Apr-10 20:15N 28°19' W 015°46'1419.9
2015-Apr-10 19:33N 28°14' W 015°32'8 8.3
2015-Apr-10 18:34N 28°10' W 015°24'6 6.4
2015-Apr-10 17:34N 28°08' W 015°17'2019.9
2015-Apr-10 16:33N 28°05' W 014°55'2020.1
2015-Apr-10 15:34N 28°02' W 014°32'9 9.0
2015-Apr-10 14:32N 28°03' W 014°22'0 0.0
2015-Apr-10 13:31N 28°03' W 014°22'0 0.0
2015-Apr-10 12:33N 28°03' W 014°22'1615.9
2015-Apr-10 11:33N 28°03' W 014°40'2019.9
2015-Apr-10 10:33N 28°05' W 015°02'2019.6
2015-Apr-10 09:33N 28°09' W 015°24'2 2.3
2015-Apr-10 08:33N 28°11' W 015°24'2020.1
2015-Apr-10 07:33N 28°19' W 015°45'2020.2
2015-Apr-10 06:33N 28°26' W 016°07'7 3.6
2015-Apr-10 04:31N 28°28' W 016°15'0 0.0
2015-Apr-10 03:33N 28°28' W 016°15'0 0.0
2015-Apr-10 02:32N 28°28' W 016°15'0 0.0
2015-Apr-10 01:05N 28°28' W 016°15'21 4.6
2015-Apr-09 20:33N 28°21' W 015°52'2019.7
2015-Apr-09 19:34N 28°14' W 015°31'8 8.0
2015-Apr-09 18:33N 28°10' W 015°24'3 2.9
2015-Apr-09 17:33N 28°12' W 015°25'2020.2
2015-Apr-09 16:33N 28°19' W 015°47'2019.7
2015-Apr-09 15:31N 28°27' W 016°08'17 5.8
2015-Apr-09 12:33N 28°20' W 015°50'1919.6
2015-Apr-09 11:33N 28°14' W 015°29'6 6.2
2015-Apr-09 10:33N 28°10' W 015°24'0 0.0
2015-Apr-09 09:33N 28°10' W 015°24'8 8.4
2015-Apr-09 08:33N 28°14' W 015°32'2020.4
2015-Apr-09 07:33N 28°21' W 015°54'2016.4
2015-Apr-09 06:21N 28°28' W 016°15'0 0.0
2015-Apr-09 05:32N 28°28' W 016°15'0 0.0
2015-Apr-09 02:15N 28°28' W 016°15'0 0.0
2015-Apr-09 01:23N 28°28' W 016°15'0 0.0
2015-Apr-09 00:29N 28°28' W 016°15'0 0.0
2015-Apr-08 23:33N 28°28' W 016°15'0 0.0
2015-Apr-08 22:29N 28°28' W 016°15'2311.9
2015-Apr-08 20:33N 28°21' W 015°50'1919.1
2015-Apr-08 19:33N 28°14' W 015°30'7 6.7
2015-Apr-08 18:33N 28°10' W 015°24'7 6.5
2015-Apr-08 17:33N 28°08' W 015°17'1919.3
2015-Apr-08 16:33N 28°05' W 014°55'1919.4
2015-Apr-08 15:33N 28°02' W 014°33'10 8.7
2015-Apr-08 14:22N 28°03' W 014°22'0 0.0
2015-Apr-08 13:31N 28°03' W 014°22'0 0.0
2015-Apr-08 12:33N 28°03' W 014°22'0 0.0
2015-Apr-08 11:33N 28°03' W 014°22'0 0.0
2015-Apr-08 10:33N 28°03' W 014°22'8 8.3
2015-Apr-08 09:32N 28°02' W 014°31'1919.9
2015-Apr-08 08:34N 28°04' W 014°53'2020.1
2015-Apr-08 07:33N 28°07' W 015°16'8 8.2
2015-Apr-08 06:33N 28°08' W 015°25'0 0.0
2015-Apr-08 05:33N 28°08' W 015°25'0 0.0
2015-Apr-08 04:33N 28°08' W 015°25'0 0.0
2015-Apr-08 03:33N 28°08' W 015°25'0 0.0
2015-Apr-08 02:33N 28°08' W 015°25'0 0.0
2015-Apr-08 01:33N 28°08' W 015°25'0 0.0
2015-Apr-08 00:33N 28°08' W 015°25'0 0.0
2015-Apr-07 23:33N 28°08' W 015°25'0 0.0
2015-Apr-07 22:33N 28°08' W 015°25'0 0.0
2015-Apr-07 21:33N 28°08' W 015°25'0 0.0
2015-Apr-07 20:33N 28°08' W 015°25'0 0.0
2015-Apr-07 19:33N 28°08' W 015°25'0 0.0
2015-Apr-07 18:33N 28°08' W 015°25'7 7.1
2015-Apr-07 17:33N 28°06' W 015°17'2019.6
2015-Apr-07 16:33N 28°04' W 014°55'1919.4
2015-Apr-07 15:33N 28°02' W 014°33'1010.0
2015-Apr-07 14:33N 28°03' W 014°22'0 0.0
2015-Apr-07 13:33N 28°03' W 014°22'0 0.0
2015-Apr-07 12:32N 28°03' W 014°22'0 0.0
2015-Apr-07 11:32N 28°03' W 014°22'0 0.0
2015-Apr-07 10:26N 28°03' W 014°22'1010.3
2015-Apr-07 09:29N 28°02' W 014°33'1819.9
2015-Apr-07 08:33N 28°04' W 014°54'2020.1
2015-Apr-07 07:33N 28°06' W 015°16'8 8.0
2015-Apr-07 06:33N 28°08' W 015°25'0 0.0
2015-Apr-07 05:33N 28°08' W 015°25'0 0.0
2015-Apr-07 04:33N 28°08' W 015°25'0 0.0
2015-Apr-07 03:33N 28°08' W 015°25'0 0.0
2015-Apr-07 02:33N 28°08' W 015°25'0 0.0
2015-Apr-07 01:33N 28°08' W 015°25'0 0.0
2015-Apr-07 00:33N 28°08' W 015°25'0 0.0
2015-Apr-06 23:33N 28°08' W 015°25'0 0.0
2015-Apr-06 22:33N 28°08' W 015°25'0 0.0
2015-Apr-06 21:33N 28°08' W 015°25'0 0.0
2015-Apr-06 20:33N 28°08' W 015°25'0 0.0
2015-Apr-06 19:33N 28°08' W 015°25'0 0.0
2015-Apr-06 18:33N 28°08' W 015°25'9 9.1
2015-Apr-06 17:33N 28°06' W 015°15'2019.6
2015-Apr-06 16:33N 28°04' W 014°53'2019.5
2015-Apr-06 15:33N 28°02' W 014°31'8 7.7
2015-Apr-06 14:31N 28°03' W 014°22'0 0.0
2015-Apr-06 13:33N 28°03' W 014°22'0 0.0
2015-Apr-06 12:33N 28°03' W 014°22'0 0.0
2015-Apr-06 11:32N 28°03' W 014°22'0 0.0
2015-Apr-06 10:33N 28°03' W 014°22'  
Track history (hours):
 
Tides and Currents Weather Stations Pressure Air Temp Water Temp Dewpoint Dewpoint Depression Visibility Wind Speed Wind Dir Waves Ship Positions

Volcan De Tamasite

Last reported at 2015-Apr-16 09:33 UTC. Time now 2015-May-05 14:16 UTC.
Position N 28°10' W 015°24'.
Warning: this ship's position is 19 days out of date.

Length 141 m; draft 5.4 m.

Type: Passenger vessel. MMSI: 224093000.

Date/timePositionNaut miles runAvg speedWind from/ knotsBaromVisibWave heightAir tempDewpointWater temp
2015-Apr-16 09:33N 28°10' W 015°24'1010.4
2015-Apr-16 08:33N 28°15' W 015°34'2019.7
2015-Apr-16 07:33N 28°22' W 015°55'1917.3
2015-Apr-16 06:29N 28°28' W 016°15'0 0.0
2015-Apr-16 05:33N 28°28' W 016°15'0 0.0
2015-Apr-16 04:26N 28°28' W 016°15'0 0.0
2015-Apr-16 02:11N 28°28' W 016°15'0 0.0
2015-Apr-16 00:33N 28°28' W 016°15'0 0.0
2015-Apr-15 23:31N 28°28' W 016°15'0 0.0
2015-Apr-15 22:33N 28°28' W 016°15'2311.2
2015-Apr-15 20:32N 28°21' W 015°50'2020.2
2015-Apr-15 19:33N 28°14' W 015°30'7 6.5
2015-Apr-15 18:33N 28°10' W 015°24'5 4.9
2015-Apr-15 17:33N 28°08' W 015°19'2020.1
2015-Apr-15 16:33N 28°05' W 014°56'2020.2
2015-Apr-15 15:33N 28°02' W 014°34'10 3.4
2015-Apr-15 12:33N 28°03' W 014°22'0 0.0
2015-Apr-15 11:33N 28°03' W 014°22'0 0.0
2015-Apr-15 10:33N 28°03' W 014°22'8 8.2
2015-Apr-15 09:32N 28°02' W 014°31'1919.7
2015-Apr-15 08:33N 28°04' W 014°53'2019.7
2015-Apr-15 07:33N 28°06' W 015°15'9 8.9
2015-Apr-15 06:33N 28°08' W 015°25'0 0.0
2015-Apr-15 05:33N 28°08' W 015°25'0 0.0
2015-Apr-15 04:33N 28°08' W 015°25'0 0.0
2015-Apr-15 03:33N 28°08' W 015°25'0 0.0
2015-Apr-15 02:33N 28°08' W 015°25'0 0.0
2015-Apr-15 01:33N 28°08' W 015°25'0 0.0
2015-Apr-15 00:33N 28°08' W 015°25'0 0.0
2015-Apr-14 23:33N 28°08' W 015°25'0 0.0
2015-Apr-14 22:33N 28°08' W 015°25'0 0.0
2015-Apr-14 21:33N 28°08' W 015°25'0 0.0
2015-Apr-14 20:34N 28°08' W 015°25'0 0.0
2015-Apr-14 19:33N 28°08' W 015°25'0 0.0
2015-Apr-14 18:34N 28°08' W 015°25'7 7.3
2015-Apr-14 17:33N 28°06' W 015°17'1919.3
2015-Apr-14 16:33N 28°04' W 014°55'1919.5
2015-Apr-14 15:33N 28°02' W 014°33'1010.0
2015-Apr-14 14:33N 28°03' W 014°22'0 0.0
2015-Apr-14 13:32N 28°03' W 014°22'0 0.0
2015-Apr-14 12:33N 28°03' W 014°22'0 0.0
2015-Apr-14 11:33N 28°03' W 014°22'0 0.0
2015-Apr-14 10:32N 28°03' W 014°22'8 8.3
2015-Apr-14 09:32N 28°02' W 014°31'2020.1
2015-Apr-14 08:34N 28°04' W 014°53'2020.1
2015-Apr-14 07:33N 28°07' W 015°16'8 8.0
2015-Apr-14 06:33N 28°08' W 015°25'0 0.0
2015-Apr-14 05:33N 28°08' W 015°25'0 0.0
2015-Apr-14 04:33N 28°08' W 015°25'0 0.0
2015-Apr-14 03:33N 28°08' W 015°25'0 0.0
2015-Apr-14 02:33N 28°08' W 015°25'0 0.0
2015-Apr-14 01:33N 28°08' W 015°25'0 0.0
2015-Apr-14 00:33N 28°08' W 015°25'0 0.0
2015-Apr-13 23:33N 28°08' W 015°25'0 0.0
2015-Apr-13 22:33N 28°08' W 015°25'0 0.0
2015-Apr-13 21:33N 28°08' W 015°25'0 0.0
2015-Apr-13 20:33N 28°08' W 015°25'0 0.0
2015-Apr-13 19:33N 28°08' W 015°25'0 0.0
2015-Apr-13 18:33N 28°08' W 015°25'7 7.5
2015-Apr-13 17:34N 28°06' W 015°17'2020.0
2015-Apr-13 16:34N 28°04' W 014°54'2020.2
2015-Apr-13 15:34N 28°02' W 014°31'8 8.5
2015-Apr-13 14:33N 28°03' W 014°22'0 0.0
2015-Apr-13 13:33N 28°03' W 014°22'0 0.0
2015-Apr-13 12:33N 28°03' W 014°22'0 0.0
2015-Apr-13 11:33N 28°03' W 014°22'0 0.0
2015-Apr-13 10:32N 28°03' W 014°22'1110.4
2015-Apr-13 09:30N 28°02' W 014°34'1920.0
2015-Apr-13 08:34N 28°04' W 014°55'2020.4
2015-Apr-13 07:33N 28°07' W 015°18'6 6.3
2015-Apr-13 06:34N 28°08' W 015°25'0 0.0
2015-Apr-13 05:34N 28°08' W 015°25'0 0.0
2015-Apr-13 04:33N 28°08' W 015°25'0 0.0
2015-Apr-13 03:33N 28°08' W 015°25'0 0.0
2015-Apr-13 02:33N 28°08' W 015°25'0 0.0
2015-Apr-13 01:33N 28°08' W 015°25'0 0.0
2015-Apr-13 00:33N 28°08' W 015°25'0 0.0
2015-Apr-12 23:33N 28°08' W 015°25'0 0.0
2015-Apr-12 22:33N 28°08' W 015°25'0 0.0
2015-Apr-12 21:33N 28°08' W 015°25'0 0.1
2015-Apr-12 20:34N 28°08' W 015°25'1615.8
2015-Apr-12 19:33N 28°06' W 015°07'2019.9
2015-Apr-12 18:33N 28°03' W 014°45'2019.8
2015-Apr-12 17:33N 28°03' W 014°22'1 0.5
2015-Apr-12 16:33N 28°03' W 014°22'9 8.8
2015-Apr-12 15:33N 28°02' W 014°32'2019.9
2015-Apr-12 14:33N 28°04' W 014°54'2020.3
2015-Apr-12 13:34N 28°07' W 015°17'7 7.3
2015-Apr-12 12:33N 28°08' W 015°25'0 0.0
2015-Apr-12 11:33N 28°08' W 015°25'0 0.0
2015-Apr-12 10:33N 28°08' W 015°25'3 2.6
2015-Apr-12 09:33N 28°11' W 015°23'2019.9
2015-Apr-12 08:33N 28°18' W 015°44'2019.8
2015-Apr-12 07:33N 28°26' W 016°05'9 3.6
2015-Apr-12 05:09N 28°28' W 016°15'0 0.0
2015-Apr-11 23:10N 28°28' W 016°15'24 9.0
2015-Apr-11 20:33N 28°21' W 015°49'2020.0
2015-Apr-11 19:33N 28°14' W 015°28'6 5.6
2015-Apr-11 18:33N 28°10' W 015°24'5 4.7
2015-Apr-11 17:33N 28°08' W 015°19'2019.8
2015-Apr-11 16:33N 28°05' W 014°57'2020.0
2015-Apr-11 15:33N 28°02' W 014°34'1110.9
2015-Apr-11 14:33N 28°03' W 014°22'0 0.0
2015-Apr-11 13:30N 28°03' W 014°22'0 0.0
2015-Apr-11 12:32N 28°03' W 014°22'1616.2
2015-Apr-11 11:33N 28°03' W 014°40'2019.6
2015-Apr-11 10:33N 28°06' W 015°02'2019.7
2015-Apr-11 09:33N 28°09' W 015°24'2 1.9
2015-Apr-11 08:34N 28°11' W 015°24'2019.6
2015-Apr-11 07:34N 28°18' W 015°44'2019.7
2015-Apr-11 06:33N 28°26' W 016°05'18 1.7
2015-Apr-10 20:15N 28°19' W 015°46'1419.9
2015-Apr-10 19:33N 28°14' W 015°32'8 8.3
2015-Apr-10 18:34N 28°10' W 015°24'6 6.4
2015-Apr-10 17:34N 28°08' W 015°17'2019.9
2015-Apr-10 16:33N 28°05' W 014°55'2020.1
2015-Apr-10 15:34N 28°02' W 014°32'9 9.0
2015-Apr-10 14:32N 28°03' W 014°22'0 0.0
2015-Apr-10 13:31N 28°03' W 014°22'0 0.0
2015-Apr-10 12:33N 28°03' W 014°22'1615.9
2015-Apr-10 11:33N 28°03' W 014°40'2019.9
2015-Apr-10 10:33N 28°05' W 015°02'2019.6
2015-Apr-10 09:33N 28°09' W 015°24'2 2.3
2015-Apr-10 08:33N 28°11' W 015°24'2020.1
2015-Apr-10 07:33N 28°19' W 015°45'2020.2
2015-Apr-10 06:33N 28°26' W 016°07'7 3.6
2015-Apr-10 04:31N 28°28' W 016°15'0 0.0
2015-Apr-10 03:33N 28°28' W 016°15'0 0.0
2015-Apr-10 02:32N 28°28' W 016°15'0 0.0
2015-Apr-10 01:05N 28°28' W 016°15'21 4.6
2015-Apr-09 20:33N 28°21' W 015°52'2019.7
2015-Apr-09 19:34N 28°14' W 015°31'8 8.0
2015-Apr-09 18:33N 28°10' W 015°24'3 2.9
2015-Apr-09 17:33N 28°12' W 015°25'2020.2
2015-Apr-09 16:33N 28°19' W 015°47'2019.7
2015-Apr-09 15:31N 28°27' W 016°08'17 5.8
2015-Apr-09 12:33N 28°20' W 015°50'1919.6
2015-Apr-09 11:33N 28°14' W 015°29'6 6.2
2015-Apr-09 10:33N 28°10' W 015°24'0 0.0
2015-Apr-09 09:33N 28°10' W 015°24'8 8.4
2015-Apr-09 08:33N 28°14' W 015°32'2020.4
2015-Apr-09 07:33N 28°21' W 015°54'2016.4
2015-Apr-09 06:21N 28°28' W 016°15'0 0.0
2015-Apr-09 05:32N 28°28' W 016°15'0 0.0
2015-Apr-09 02:15N 28°28' W 016°15'0 0.0
2015-Apr-09 01:23N 28°28' W 016°15'0 0.0
2015-Apr-09 00:29N 28°28' W 016°15'0 0.0
2015-Apr-08 23:33N 28°28' W 016°15'0 0.0
2015-Apr-08 22:29N 28°28' W 016°15'2311.9
2015-Apr-08 20:33N 28°21' W 015°50'1919.1
2015-Apr-08 19:33N 28°14' W 015°30'7 6.7
2015-Apr-08 18:33N 28°10' W 015°24'7 6.5
2015-Apr-08 17:33N 28°08' W 015°17'1919.3
2015-Apr-08 16:33N 28°05' W 014°55'1919.4
2015-Apr-08 15:33N 28°02' W 014°33'10 8.7
2015-Apr-08 14:22N 28°03' W 014°22'0 0.0
2015-Apr-08 13:31N 28°03' W 014°22'0 0.0
2015-Apr-08 12:33N 28°03' W 014°22'0 0.0
2015-Apr-08 11:33N 28°03' W 014°22'0 0.0
2015-Apr-08 10:33N 28°03' W 014°22'8 8.3
2015-Apr-08 09:32N 28°02' W 014°31'1919.9
2015-Apr-08 08:34N 28°04' W 014°53'2020.1
2015-Apr-08 07:33N 28°07' W 015°16'8 8.2
2015-Apr-08 06:33N 28°08' W 015°25'0 0.0
2015-Apr-08 05:33N 28°08' W 015°25'0 0.0
2015-Apr-08 04:33N 28°08' W 015°25'0 0.0
2015-Apr-08 03:33N 28°08' W 015°25'0 0.0
2015-Apr-08 02:33N 28°08' W 015°25'0 0.0
2015-Apr-08 01:33N 28°08' W 015°25'0 0.0
2015-Apr-08 00:33N 28°08' W 015°25'0 0.0
2015-Apr-07 23:33N 28°08' W 015°25'0 0.0
2015-Apr-07 22:33N 28°08' W 015°25'0 0.0
2015-Apr-07 21:33N 28°08' W 015°25'0 0.0
2015-Apr-07 20:33N 28°08' W 015°25'0 0.0
2015-Apr-07 19:33N 28°08' W 015°25'0 0.0
2015-Apr-07 18:33N 28°08' W 015°25'7 7.1
2015-Apr-07 17:33N 28°06' W 015°17'2019.6
2015-Apr-07 16:33N 28°04' W 014°55'1919.4
2015-Apr-07 15:33N 28°02' W 014°33'1010.0
2015-Apr-07 14:33N 28°03' W 014°22'0 0.0
2015-Apr-07 13:33N 28°03' W 014°22'0 0.0
2015-Apr-07 12:32N 28°03' W 014°22'0 0.0
2015-Apr-07 11:32N 28°03' W 014°22'0 0.0
2015-Apr-07 10:26N 28°03' W 014°22'1010.3
2015-Apr-07 09:29N 28°02' W 014°33'1819.9
2015-Apr-07 08:33N 28°04' W 014°54'2020.1
2015-Apr-07 07:33N 28°06' W 015°16'8 8.0
2015-Apr-07 06:33N 28°08' W 015°25'0 0.0
2015-Apr-07 05:33N 28°08' W 015°25'0 0.0
2015-Apr-07 04:33N 28°08' W 015°25'0 0.0
2015-Apr-07 03:33N 28°08' W 015°25'0 0.0
2015-Apr-07 02:33N 28°08' W 015°25'0 0.0
2015-Apr-07 01:33N 28°08' W 015°25'0 0.0
2015-Apr-07 00:33N 28°08' W 015°25'0 0.0
2015-Apr-06 23:33N 28°08' W 015°25'0 0.0
2015-Apr-06 22:33N 28°08' W 015°25'0 0.0
2015-Apr-06 21:33N 28°08' W 015°25'0 0.0
2015-Apr-06 20:33N 28°08' W 015°25'0 0.0
2015-Apr-06 19:33N 28°08' W 015°25'0 0.0
2015-Apr-06 18:33N 28°08' W 015°25'9 9.1
2015-Apr-06 17:33N 28°06' W 015°15'2019.6
2015-Apr-06 16:33N 28°04' W 014°53'2019.5
2015-Apr-06 15:33N 28°02' W 014°31'8 7.7
2015-Apr-06 14:31N 28°03' W 014°22'0 0.0
2015-Apr-06 13:33N 28°03' W 014°22'0 0.0
2015-Apr-06 12:33N 28°03' W 014°22'0 0.0
2015-Apr-06 11:32N 28°03' W 014°22'0 0.0
2015-Apr-06 10:33N 28°03' W 014°22'  

Dump ship's entire track history